sensor_id;sensor_type;location;lat;lon;timestamp;temperature;humidity
1992;DHT22;997;48.448;8.924;2023-12-28T08:20:20;9.30;99.90
1992;DHT22;997;48.448;8.924;2023-12-28T08:22:45;9.40;99.90
1992;DHT22;997;48.448;8.924;2023-12-28T08:25:11;9.40;99.90
1992;DHT22;997;48.448;8.924;2023-12-28T08:27:37;9.40;99.90
1992;DHT22;997;48.448;8.924;2023-12-28T08:30:04;9.50;99.90
1992;DHT22;997;48.448;8.924;2023-12-28T08:32:30;9.60;99.90
1992;DHT22;997;48.448;8.924;2023-12-28T08:34:59;9.60;99.90
1992;DHT22;997;48.448;8.924;2023-12-28T08:37:25;9.60;99.90
1992;DHT22;997;48.448;8.924;2023-12-28T08:39:50;9.60;99.90
1992;DHT22;997;48.448;8.924;2023-12-28T08:42:16;9.70;99.90
1992;DHT22;997;48.448;8.924;2023-12-28T08:44:42;9.60;99.90
1992;DHT22;997;48.448;8.924;2023-12-28T08:47:07;9.60;99.90
1992;DHT22;997;48.448;8.924;2023-12-28T08:49:33;9.50;99.90
1992;DHT22;997;48.448;8.924;2023-12-28T08:51:59;9.50;99.90
1992;DHT22;997;48.448;8.924;2023-12-28T08:54:24;9.50;99.90
1992;DHT22;997;48.448;8.924;2023-12-28T08:56:50;9.50;99.90
1992;DHT22;997;48.448;8.924;2023-12-28T08:59:16;9.60;99.90
1992;DHT22;997;48.448;8.924;2023-12-28T09:01:41;9.70;99.90
1992;DHT22;997;48.448;8.924;2023-12-28T09:04:07;9.80;99.90
1992;DHT22;997;48.448;8.924;2023-12-28T09:06:32;9.90;99.90
1992;DHT22;997;48.448;8.924;2023-12-28T09:08:58;9.90;99.90
1992;DHT22;997;48.448;8.924;2023-12-28T09:11:24;10.00;99.90
1992;DHT22;997;48.448;8.924;2023-12-28T09:13:50;10.10;99.90
1992;DHT22;997;48.448;8.924;2023-12-28T09:16:16;10.10;99.90
1992;DHT22;997;48.448;8.924;2023-12-28T09:18:42;10.10;99.90
1992;DHT22;997;48.448;8.924;2023-12-28T09:21:08;10.20;99.90
1992;DHT22;997;48.448;8.924;2023-12-28T09:23:35;10.30;99.90
1992;DHT22;997;48.448;8.924;2023-12-28T09:26:02;10.30;99.90
1992;DHT22;997;48.448;8.924;2023-12-28T09:28:31;10.30;99.90
1992;DHT22;997;48.448;8.924;2023-12-28T09:30:57;10.30;99.90
1992;DHT22;997;48.448;8.924;2023-12-28T09:33:23;10.30;99.90
1992;DHT22;997;48.448;8.924;2023-12-28T09:35:49;10.40;99.90
1992;DHT22;997;48.448;8.924;2023-12-28T09:38:15;10.50;99.90
1992;DHT22;997;48.448;8.924;2023-12-28T09:40:42;10.50;99.90
1992;DHT22;997;48.448;8.924;2023-12-28T09:43:25;10.40;99.90
1992;DHT22;997;48.448;8.924;2023-12-28T09:45:51;10.40;99.90
1992;DHT22;997;48.448;8.924;2023-12-28T09:48:18;10.20;99.90
1992;DHT22;997;48.448;8.924;2023-12-28T09:50:54;10.10;99.90
1992;DHT22;997;48.448;8.924;2023-12-28T09:53:24;10.00;99.90
1992;DHT22;997;48.448;8.924;2023-12-28T09:55:51;10.10;99.90
1992;DHT22;997;48.448;8.924;2023-12-28T09:58:21;10.20;99.90
1992;DHT22;997;48.448;8.924;2023-12-28T10:00:48;10.20;99.90
1992;DHT22;997;48.448;8.924;2023-12-28T10:03:15;10.20;99.90
1992;DHT22;997;48.448;8.924;2023-12-28T10:05:42;10.30;99.90
1992;DHT22;997;48.448;8.924;2023-12-28T10:08:07;10.40;99.90
1992;DHT22;997;48.448;8.924;2023-12-28T10:10:34;10.50;99.90
1992;DHT22;997;48.448;8.924;2023-12-28T10:13:00;10.60;99.90
1992;DHT22;997;48.448;8.924;2023-12-28T10:15:25;10.70;99.90
1992;DHT22;997;48.448;8.924;2023-12-28T10:17:52;10.80;99.90
1992;DHT22;997;48.448;8.924;2023-12-28T10:20:17;10.90;99.90
1992;DHT22;997;48.448;8.924;2023-12-28T10:22:44;11.10;99.90
1992;DHT22;997;48.448;8.924;2023-12-28T10:25:11;11.20;99.90
1992;DHT22;997;48.448;8.924;2023-12-28T10:27:40;11.30;99.90
1992;DHT22;997;48.448;8.924;2023-12-28T10:30:08;11.40;99.90
1992;DHT22;997;48.448;8.924;2023-12-28T10:32:34;11.30;99.90
1992;DHT22;997;48.448;8.924;2023-12-28T10:35:00;11.30;99.90
1992;DHT22;997;48.448;8.924;2023-12-28T10:37:26;11.30;99.90
1992;DHT22;997;48.448;8.924;2023-12-28T10:39:53;11.40;99.90
1992;DHT22;997;48.448;8.924;2023-12-28T10:42:33;11.40;99.90
1992;DHT22;997;48.448;8.924;2023-12-28T10:45:04;11.40;99.90
1992;DHT22;997;48.448;8.924;2023-12-28T10:47:42;11.40;99.90
1992;DHT22;997;48.448;8.924;2023-12-28T10:50:08;11.40;99.90
1992;DHT22;997;48.448;8.924;2023-12-28T10:52:35;11.40;99.90
1992;DHT22;997;48.448;8.924;2023-12-28T10:55:19;11.30;99.90
1992;DHT22;997;48.448;8.924;2023-12-28T10:58:03;11.30;99.90
1992;DHT22;997;48.448;8.924;2023-12-28T11:00:33;11.30;99.90
1992;DHT22;997;48.448;8.924;2023-12-28T11:03:06;11.20;99.90
1992;DHT22;997;48.448;8.924;2023-12-28T11:05:35;11.10;99.90
1992;DHT22;997;48.448;8.924;2023-12-28T11:08:02;11.10;99.90
1992;DHT22;997;48.448;8.924;2023-12-28T11:10:30;11.00;99.90
1992;DHT22;997;48.448;8.924;2023-12-28T11:12:58;11.10;99.90
1992;DHT22;997;48.448;8.924;2023-12-28T11:15:26;11.20;99.90
1992;DHT22;997;48.448;8.924;2023-12-28T11:17:52;11.30;99.90
1992;DHT22;997;48.448;8.924;2023-12-28T11:20:18;11.40;99.90
1992;DHT22;997;48.448;8.924;2023-12-28T11:22:44;11.50;99.90
1992;DHT22;997;48.448;8.924;2023-12-28T11:25:18;11.70;99.90
1992;DHT22;997;48.448;8.924;2023-12-28T11:27:45;11.90;99.90
1992;DHT22;997;48.448;8.924;2023-12-28T11:30:12;11.90;99.90
1992;DHT22;997;48.448;8.924;2023-12-28T11:32:42;12.10;99.90
1992;DHT22;997;48.448;8.924;2023-12-28T11:35:12;12.30;99.90
1992;DHT22;997;48.448;8.924;2023-12-28T11:37:42;12.20;99.90
1992;DHT22;997;48.448;8.924;2023-12-28T11:40:16;12.20;99.90
1992;DHT22;997;48.448;8.924;2023-12-28T11:42:52;12.20;99.90
1992;DHT22;997;48.448;8.924;2023-12-28T11:45:20;12.20;99.90
1992;DHT22;997;48.448;8.924;2023-12-28T11:47:46;12.10;99.90
1992;DHT22;997;48.448;8.924;2023-12-28T11:50:12;12.00;99.90
1992;DHT22;997;48.448;8.924;2023-12-28T11:52:38;12.10;99.90
1992;DHT22;997;48.448;8.924;2023-12-28T11:55:04;12.30;99.90
1992;DHT22;997;48.448;8.924;2023-12-28T11:57:30;12.30;99.90
1992;DHT22;997;48.448;8.924;2023-12-28T11:59:58;12.50;99.90
1992;DHT22;997;48.448;8.924;2023-12-28T12:02:25;12.50;99.90
1992;DHT22;997;48.448;8.924;2023-12-28T12:04:51;12.60;99.90
1992;DHT22;997;48.448;8.924;2023-12-28T12:07:17;12.70;99.90
1992;DHT22;997;48.448;8.924;2023-12-28T12:09:43;12.70;99.90
1992;DHT22;997;48.448;8.924;2023-12-28T12:12:08;12.80;99.90
1992;DHT22;997;48.448;8.924;2023-12-28T12:14:34;12.70;99.90
1992;DHT22;997;48.448;8.924;2023-12-28T12:17:01;12.70;99.90
1992;DHT22;997;48.448;8.924;2023-12-28T12:19:27;12.60;99.90
1992;DHT22;997;48.448;8.924;2023-12-28T12:21:53;12.50;99.90
1992;DHT22;997;48.448;8.924;2023-12-28T12:24:20;12.50;99.90
1992;DHT22;997;48.448;8.924;2023-12-28T12:26:46;12.50;99.90
1992;DHT22;997;48.448;8.924;2023-12-28T12:29:12;12.50;99.90
1992;DHT22;997;48.448;8.924;2023-12-28T12:31:40;12.50;99.90
1992;DHT22;997;48.448;8.924;2023-12-28T12:34:10;12.50;99.90
1992;DHT22;997;48.448;8.924;2023-12-28T12:36:36;12.50;99.90
1992;DHT22;997;48.448;8.924;2023-12-28T12:39:04;12.30;99.90
1992;DHT22;997;48.448;8.924;2023-12-28T12:41:34;12.20;99.90
1992;DHT22;997;48.448;8.924;2023-12-28T12:44:00;12.10;99.90
1992;DHT22;997;48.448;8.924;2023-12-28T12:46:26;12.00;99.90
1992;DHT22;997;48.448;8.924;2023-12-28T12:48:59;12.00;99.90
1992;DHT22;997;48.448;8.924;2023-12-28T12:51:26;12.20;99.90
1992;DHT22;997;48.448;8.924;2023-12-28T12:53:58;12.20;99.90
1992;DHT22;997;48.448;8.924;2023-12-28T12:56:26;12.30;99.90
1992;DHT22;997;48.448;8.924;2023-12-28T12:58:53;12.20;99.90
1992;DHT22;997;48.448;8.924;2023-12-28T13:01:19;12.00;99.90
1992;DHT22;997;48.448;8.924;2023-12-28T13:03:45;11.90;99.90
1992;DHT22;997;48.448;8.924;2023-12-28T13:06:12;11.70;99.90
1992;DHT22;997;48.448;8.924;2023-12-28T13:08:37;11.70;99.90
1992;DHT22;997;48.448;8.924;2023-12-28T13:11:03;11.70;99.90
1992;DHT22;997;48.448;8.924;2023-12-28T13:13:35;11.70;99.90
1992;DHT22;997;48.448;8.924;2023-12-28T13:16:01;11.70;99.90
1992;DHT22;997;48.448;8.924;2023-12-28T13:18:27;11.70;99.90
1992;DHT22;997;48.448;8.924;2023-12-28T13:20:52;11.60;99.90
1992;DHT22;997;48.448;8.924;2023-12-28T13:23:18;11.60;99.90
1992;DHT22;997;48.448;8.924;2023-12-28T13:25:44;11.60;99.90
1992;DHT22;997;48.448;8.924;2023-12-28T13:28:10;11.50;99.90
1992;DHT22;997;48.448;8.924;2023-12-28T13:30:36;11.60;99.90
1992;DHT22;997;48.448;8.924;2023-12-28T13:33:03;11.60;99.90
1992;DHT22;997;48.448;8.924;2023-12-28T13:35:30;11.50;99.90
1992;DHT22;997;48.448;8.924;2023-12-28T13:37:59;11.50;99.90
1992;DHT22;997;48.448;8.924;2023-12-28T13:40:24;11.50;99.90
1992;DHT22;997;48.448;8.924;2023-12-28T13:42:50;11.50;99.90
1992;DHT22;997;48.448;8.924;2023-12-28T13:45:16;11.60;99.90
1992;DHT22;997;48.448;8.924;2023-12-28T13:47:42;11.70;99.90
1992;DHT22;997;48.448;8.924;2023-12-28T13:50:08;11.80;99.90
1992;DHT22;997;48.448;8.924;2023-12-28T13:52:33;11.80;99.90
1992;DHT22;997;48.448;8.924;2023-12-28T13:54:59;11.80;99.90
1992;DHT22;997;48.448;8.924;2023-12-28T13:57:25;11.80;99.90
1992;DHT22;997;48.448;8.924;2023-12-28T13:59:50;11.80;99.90
1992;DHT22;997;48.448;8.924;2023-12-28T14:02:16;11.80;99.90
1992;DHT22;997;48.448;8.924;2023-12-28T14:04:41;11.70;99.90
1992;DHT22;997;48.448;8.924;2023-12-28T14:07:07;11.70;99.90
1992;DHT22;997;48.448;8.924;2023-12-28T14:09:33;11.60;99.90
1992;DHT22;997;48.448;8.924;2023-12-28T14:11:59;11.60;99.90
1992;DHT22;997;48.448;8.924;2023-12-28T14:14:24;11.50;99.90
1992;DHT22;997;48.448;8.924;2023-12-28T14:16:50;11.40;99.90
1992;DHT22;997;48.448;8.924;2023-12-28T14:19:16;11.10;99.90
1992;DHT22;997;48.448;8.924;2023-12-28T14:21:42;11.00;99.90
1992;DHT22;997;48.448;8.924;2023-12-28T14:24:09;10.70;99.90
1992;DHT22;997;48.448;8.924;2023-12-28T14:26:35;10.70;99.90
1992;DHT22;997;48.448;8.924;2023-12-28T14:29:05;10.60;99.90
1992;DHT22;997;48.448;8.924;2023-12-28T14:31:32;10.50;99.90
1992;DHT22;997;48.448;8.924;2023-12-28T14:33:58;10.50;99.90
1992;DHT22;997;48.448;8.924;2023-12-28T14:36:34;10.40;99.90
1992;DHT22;997;48.448;8.924;2023-12-28T14:39:00;10.40;99.90
1992;DHT22;997;48.448;8.924;2023-12-28T14:41:26;10.50;99.90
1992;DHT22;997;48.448;8.924;2023-12-28T14:43:55;10.50;99.90
1992;DHT22;997;48.448;8.924;2023-12-28T14:46:20;10.30;99.90
1992;DHT22;997;48.448;8.924;2023-12-28T14:48:46;10.40;99.90
1992;DHT22;997;48.448;8.924;2023-12-28T14:51:12;10.30;99.90
1992;DHT22;997;48.448;8.924;2023-12-28T14:53:38;10.30;99.90
1992;DHT22;997;48.448;8.924;2023-12-28T14:56:04;10.20;99.90
1992;DHT22;997;48.448;8.924;2023-12-28T14:58:29;10.20;99.90
1992;DHT22;997;48.448;8.924;2023-12-28T15:00:55;10.30;99.90
1992;DHT22;997;48.448;8.924;2023-12-28T15:03:22;10.30;99.90
1992;DHT22;997;48.448;8.924;2023-12-28T15:05:48;10.20;99.90
1992;DHT22;997;48.448;8.924;2023-12-28T15:08:13;10.20;99.90
1992;DHT22;997;48.448;8.924;2023-12-28T15:10:39;10.40;99.90
1992;DHT22;997;48.448;8.924;2023-12-28T15:13:05;10.40;99.90
1992;DHT22;997;48.448;8.924;2023-12-28T15:15:32;10.60;99.90
1992;DHT22;997;48.448;8.924;2023-12-28T15:17:57;10.70;99.90
1992;DHT22;997;48.448;8.924;2023-12-28T15:20:24;10.60;99.90
1992;DHT22;997;48.448;8.924;2023-12-28T15:22:50;10.60;99.90
1992;DHT22;997;48.448;8.924;2023-12-28T15:25:15;10.50;99.90
1992;DHT22;997;48.448;8.924;2023-12-28T15:27:41;10.40;99.90
1992;DHT22;997;48.448;8.924;2023-12-28T15:30:07;10.40;99.90
1992;DHT22;997;48.448;8.924;2023-12-28T15:32:33;10.30;99.90
1992;DHT22;997;48.448;8.924;2023-12-28T15:34:59;10.40;99.90
1992;DHT22;997;48.448;8.924;2023-12-28T15:37:27;10.30;99.90
1992;DHT22;997;48.448;8.924;2023-12-28T15:39:52;10.20;99.90
1992;DHT22;997;48.448;8.924;2023-12-28T15:42:18;10.20;99.90
1992;DHT22;997;48.448;8.924;2023-12-28T15:44:44;10.10;99.90
1992;DHT22;997;48.448;8.924;2023-12-28T15:47:10;10.10;99.90
1992;DHT22;997;48.448;8.924;2023-12-28T15:49:35;10.20;99.90
1992;DHT22;997;48.448;8.924;2023-12-28T15:52:01;10.20;99.90
1992;DHT22;997;48.448;8.924;2023-12-28T15:54:27;10.10;99.90
1992;DHT22;997;48.448;8.924;2023-12-28T15:56:53;10.00;99.90
1992;DHT22;997;48.448;8.924;2023-12-28T15:59:18;9.90;99.90
1992;DHT22;997;48.448;8.924;2023-12-28T16:01:44;9.80;99.90
1992;DHT22;997;48.448;8.924;2023-12-28T16:04:09;9.70;99.90
1992;DHT22;997;48.448;8.924;2023-12-28T16:06:35;9.60;99.90
1992;DHT22;997;48.448;8.924;2023-12-28T16:09:01;9.60;99.90
1992;DHT22;997;48.448;8.924;2023-12-28T16:11:26;9.50;99.90
1992;DHT22;997;48.448;8.924;2023-12-28T16:13:52;9.50;99.90
1992;DHT22;997;48.448;8.924;2023-12-28T16:16:19;9.50;99.90
1992;DHT22;997;48.448;8.924;2023-12-28T16:18:45;9.50;99.90
1992;DHT22;997;48.448;8.924;2023-12-28T16:21:11;9.60;99.90
1992;DHT22;997;48.448;8.924;2023-12-28T16:23:37;9.60;99.90
1992;DHT22;997;48.448;8.924;2023-12-28T16:26:03;9.70;99.90
1992;DHT22;997;48.448;8.924;2023-12-28T16:28:29;9.70;99.90
1992;DHT22;997;48.448;8.924;2023-12-28T16:30:55;9.70;99.90
1992;DHT22;997;48.448;8.924;2023-12-28T16:33:21;9.70;99.90
1992;DHT22;997;48.448;8.924;2023-12-28T16:35:46;9.70;99.90
1992;DHT22;997;48.448;8.924;2023-12-28T16:38:13;9.70;99.90
1992;DHT22;997;48.448;8.924;2023-12-28T16:40:39;9.70;99.90
1992;DHT22;997;48.448;8.924;2023-12-28T16:43:05;9.70;99.90
1992;DHT22;997;48.448;8.924;2023-12-28T16:45:31;9.70;99.90
1992;DHT22;997;48.448;8.924;2023-12-28T16:47:56;9.70;99.90
1992;DHT22;997;48.448;8.924;2023-12-28T16:50:22;9.80;99.90
1992;DHT22;997;48.448;8.924;2023-12-28T16:52:50;9.80;99.90
1992;DHT22;997;48.448;8.924;2023-12-28T16:55:15;9.80;99.90
1992;DHT22;997;48.448;8.924;2023-12-28T16:57:41;9.70;99.90
1992;DHT22;997;48.448;8.924;2023-12-28T17:00:07;9.70;99.90
1992;DHT22;997;48.448;8.924;2023-12-28T17:02:33;9.70;99.90
1992;DHT22;997;48.448;8.924;2023-12-28T17:04:59;9.80;99.90
1992;DHT22;997;48.448;8.924;2023-12-28T17:07:25;9.70;99.90
1992;DHT22;997;48.448;8.924;2023-12-28T17:09:50;9.60;99.90
1992;DHT22;997;48.448;8.924;2023-12-28T17:12:43;9.50;99.90
1992;DHT22;997;48.448;8.924;2023-12-28T17:15:10;9.40;99.90
1992;DHT22;997;48.448;8.924;2023-12-28T17:17:37;9.50;99.90
1992;DHT22;997;48.448;8.924;2023-12-28T17:20:04;9.40;99.90
1992;DHT22;997;48.448;8.924;2023-12-28T17:22:39;9.30;99.90
1992;DHT22;997;48.448;8.924;2023-12-28T17:25:29;9.20;99.90
1992;DHT22;997;48.448;8.924;2023-12-28T17:28:00;9.20;99.90
1992;DHT22;997;48.448;8.924;2023-12-28T17:30:28;9.00;99.90
1992;DHT22;997;48.448;8.924;2023-12-28T17:32:59;9.00;99.90
1992;DHT22;997;48.448;8.924;2023-12-28T17:35:27;9.00;99.90
1992;DHT22;997;48.448;8.924;2023-12-28T17:37:53;9.00;99.90
1992;DHT22;997;48.448;8.924;2023-12-28T17:40:19;9.00;99.90
1992;DHT22;997;48.448;8.924;2023-12-28T17:42:53;9.00;99.90
1992;DHT22;997;48.448;8.924;2023-12-28T17:45:24;9.10;99.90
1992;DHT22;997;48.448;8.924;2023-12-28T17:48:08;9.10;99.90
1992;DHT22;997;48.448;8.924;2023-12-28T17:50:36;9.10;99.90
1992;DHT22;997;48.448;8.924;2023-12-28T17:53:03;9.10;99.90
1992;DHT22;997;48.448;8.924;2023-12-28T17:55:29;9.10;99.90
1992;DHT22;997;48.448;8.924;2023-12-28T17:57:54;9.20;99.90
1992;DHT22;997;48.448;8.924;2023-12-28T18:00:21;9.20;99.90
1992;DHT22;997;48.448;8.924;2023-12-28T18:02:48;9.20;99.90
1992;DHT22;997;48.448;8.924;2023-12-28T18:05:14;9.30;99.90
1992;DHT22;997;48.448;8.924;2023-12-28T18:07:40;9.10;99.90
1992;DHT22;997;48.448;8.924;2023-12-28T18:10:06;9.20;99.90
1992;DHT22;997;48.448;8.924;2023-12-28T18:12:37;9.20;99.90
1992;DHT22;997;48.448;8.924;2023-12-28T18:15:03;9.20;99.90
1992;DHT22;997;48.448;8.924;2023-12-28T18:17:29;9.30;99.90
1992;DHT22;997;48.448;8.924;2023-12-28T18:19:55;9.20;99.90
1992;DHT22;997;48.448;8.924;2023-12-28T18:22:20;9.20;99.90
1992;DHT22;997;48.448;8.924;2023-12-28T18:24:46;9.20;99.90
1992;DHT22;997;48.448;8.924;2023-12-28T18:27:15;9.10;99.90
1992;DHT22;997;48.448;8.924;2023-12-28T18:29:41;9.10;99.90
1992;DHT22;997;48.448;8.924;2023-12-28T18:32:07;9.10;99.90
1992;DHT22;997;48.448;8.924;2023-12-28T18:34:33;9.10;99.90
1992;DHT22;997;48.448;8.924;2023-12-28T18:36:58;9.10;99.90
1992;DHT22;997;48.448;8.924;2023-12-28T18:39:26;9.10;99.90
1992;DHT22;997;48.448;8.924;2023-12-28T18:41:54;9.10;99.90
1992;DHT22;997;48.448;8.924;2023-12-28T18:44:20;9.10;99.90
1992;DHT22;997;48.448;8.924;2023-12-28T18:46:45;9.10;99.90
1992;DHT22;997;48.448;8.924;2023-12-28T18:49:11;9.00;99.90
1992;DHT22;997;48.448;8.924;2023-12-28T18:51:37;9.00;99.90
1992;DHT22;997;48.448;8.924;2023-12-28T18:54:03;9.10;99.90
1992;DHT22;997;48.448;8.924;2023-12-28T18:56:29;9.20;99.90
1992;DHT22;997;48.448;8.924;2023-12-28T18:58:55;9.00;99.90
1992;DHT22;997;48.448;8.924;2023-12-28T19:01:20;9.00;99.90
1992;DHT22;997;48.448;8.924;2023-12-28T19:03:47;9.00;99.90
1992;DHT22;997;48.448;8.924;2023-12-28T19:06:13;8.90;99.90
1992;DHT22;997;48.448;8.924;2023-12-28T19:08:39;9.00;99.90
1992;DHT22;997;48.448;8.924;2023-12-28T19:11:11;9.00;99.90
1992;DHT22;997;48.448;8.924;2023-12-28T19:13:36;9.00;99.90
1992;DHT22;997;48.448;8.924;2023-12-28T19:16:02;9.10;99.90
1992;DHT22;997;48.448;8.924;2023-12-28T19:18:29;9.00;99.90
1992;DHT22;997;48.448;8.924;2023-12-28T19:20:55;9.10;99.90
1992;DHT22;997;48.448;8.924;2023-12-28T19:23:20;9.20;99.90
1992;DHT22;997;48.448;8.924;2023-12-28T19:25:46;9.20;99.90
1992;DHT22;997;48.448;8.924;2023-12-28T19:28:12;9.20;99.90
1992;DHT22;997;48.448;8.924;2023-12-28T19:30:37;9.20;99.90
1992;DHT22;997;48.448;8.924;2023-12-28T19:33:03;9.20;99.90
1992;DHT22;997;48.448;8.924;2023-12-28T19:35:29;9.10;99.90
1992;DHT22;997;48.448;8.924;2023-12-28T19:37:54;9.10;99.90
1992;DHT22;997;48.448;8.924;2023-12-28T19:40:20;9.00;99.90
1992;DHT22;997;48.448;8.924;2023-12-28T19:42:47;8.90;99.90
1992;DHT22;997;48.448;8.924;2023-12-28T19:45:13;8.90;99.90
1992;DHT22;997;48.448;8.924;2023-12-28T19:47:38;9.00;99.90
1992;DHT22;997;48.448;8.924;2023-12-28T19:50:05;9.00;99.90
1992;DHT22;997;48.448;8.924;2023-12-28T19:52:30;9.00;99.90
1992;DHT22;997;48.448;8.924;2023-12-28T19:54:56;9.00;99.90
1992;DHT22;997;48.448;8.924;2023-12-28T19:57:23;8.90;99.90
1992;DHT22;997;48.448;8.924;2023-12-28T19:59:48;8.90;99.90
1992;DHT22;997;48.448;8.924;2023-12-28T20:02:14;9.00;99.90
1992;DHT22;997;48.448;8.924;2023-12-28T20:04:41;9.00;99.90
1992;DHT22;997;48.448;8.924;2023-12-28T20:07:06;9.10;99.90
1992;DHT22;997;48.448;8.924;2023-12-28T20:09:32;9.10;99.90
1992;DHT22;997;48.448;8.924;2023-12-28T20:11:59;9.20;99.90
1992;DHT22;997;48.448;8.924;2023-12-28T20:14:25;9.30;99.90
1992;DHT22;997;48.448;8.924;2023-12-28T20:16:51;9.20;99.90
1992;DHT22;997;48.448;8.924;2023-12-28T20:19:17;9.20;99.90
1992;DHT22;997;48.448;8.924;2023-12-28T20:21:42;9.20;99.90
1992;DHT22;997;48.448;8.924;2023-12-28T20:24:08;9.20;99.90
1992;DHT22;997;48.448;8.924;2023-12-28T20:26:34;9.20;99.90
1992;DHT22;997;48.448;8.924;2023-12-28T20:29:00;9.20;99.90
1992;DHT22;997;48.448;8.924;2023-12-28T20:31:25;9.20;99.90
1992;DHT22;997;48.448;8.924;2023-12-28T20:33:53;9.20;99.90
1992;DHT22;997;48.448;8.924;2023-12-28T20:36:19;9.30;99.90
1992;DHT22;997;48.448;8.924;2023-12-28T20:38:45;9.30;99.90
1992;DHT22;997;48.448;8.924;2023-12-28T20:41:10;9.30;99.90
1992;DHT22;997;48.448;8.924;2023-12-28T20:43:43;9.30;99.90
1992;DHT22;997;48.448;8.924;2023-12-28T20:46:09;9.30;99.90
1992;DHT22;997;48.448;8.924;2023-12-28T20:48:35;9.20;99.90
1992;DHT22;997;48.448;8.924;2023-12-28T20:51:00;9.20;99.90
1992;DHT22;997;48.448;8.924;2023-12-28T20:53:29;9.20;99.90
1992;DHT22;997;48.448;8.924;2023-12-28T20:55:55;9.20;99.90
1992;DHT22;997;48.448;8.924;2023-12-28T20:58:22;9.20;99.90
1992;DHT22;997;48.448;8.924;2023-12-28T21:00:48;9.20;99.90
1992;DHT22;997;48.448;8.924;2023-12-28T21:03:14;9.20;99.90
1992;DHT22;997;48.448;8.924;2023-12-28T21:05:40;9.20;99.90
1992;DHT22;997;48.448;8.924;2023-12-28T21:08:06;9.20;99.90
1992;DHT22;997;48.448;8.924;2023-12-28T21:10:32;9.20;99.90
1992;DHT22;997;48.448;8.924;2023-12-28T21:12:58;9.20;99.90
1992;DHT22;997;48.448;8.924;2023-12-28T21:15:29;9.20;99.90
1992;DHT22;997;48.448;8.924;2023-12-28T21:17:56;9.20;99.90
1992;DHT22;997;48.448;8.924;2023-12-28T21:20:23;9.20;99.90
1992;DHT22;997;48.448;8.924;2023-12-28T21:22:50;9.10;99.90
1992;DHT22;997;48.448;8.924;2023-12-28T21:25:16;9.20;99.90
1992;DHT22;997;48.448;8.924;2023-12-28T21:27:42;9.20;99.90
1992;DHT22;997;48.448;8.924;2023-12-28T21:30:08;9.20;99.90
1992;DHT22;997;48.448;8.924;2023-12-28T21:32:36;9.10;99.90
1992;DHT22;997;48.448;8.924;2023-12-28T21:35:02;9.20;99.90
1992;DHT22;997;48.448;8.924;2023-12-28T21:37:28;9.10;99.90
1992;DHT22;997;48.448;8.924;2023-12-28T21:39:53;9.10;99.90
1992;DHT22;997;48.448;8.924;2023-12-28T21:42:19;9.20;99.90
1992;DHT22;997;48.448;8.924;2023-12-28T21:44:45;9.10;99.90
1992;DHT22;997;48.448;8.924;2023-12-28T21:47:10;9.10;99.90
1992;DHT22;997;48.448;8.924;2023-12-28T21:49:40;9.10;99.90
1992;DHT22;997;48.448;8.924;2023-12-28T21:52:06;9.10;99.90
1992;DHT22;997;48.448;8.924;2023-12-28T21:54:33;9.10;99.90
1992;DHT22;997;48.448;8.924;2023-12-28T21:56:58;9.10;99.90
1992;DHT22;997;48.448;8.924;2023-12-28T21:59:24;9.10;99.90
1992;DHT22;997;48.448;8.924;2023-12-28T22:01:51;9.10;99.90
1992;DHT22;997;48.448;8.924;2023-12-28T22:04:18;9.00;99.90
1992;DHT22;997;48.448;8.924;2023-12-28T22:06:49;9.00;99.90
1992;DHT22;997;48.448;8.924;2023-12-28T22:09:16;9.00;99.90
1992;DHT22;997;48.448;8.924;2023-12-28T22:11:41;9.00;99.90
1992;DHT22;997;48.448;8.924;2023-12-28T22:14:07;9.00;99.90
1992;DHT22;997;48.448;8.924;2023-12-28T22:16:33;9.00;99.90
1992;DHT22;997;48.448;8.924;2023-12-28T22:18:59;9.00;99.90
1992;DHT22;997;48.448;8.924;2023-12-28T22:21:25;9.00;99.90
1992;DHT22;997;48.448;8.924;2023-12-28T22:23:51;9.00;99.90
1992;DHT22;997;48.448;8.924;2023-12-28T22:26:16;9.00;99.90
1992;DHT22;997;48.448;8.924;2023-12-28T22:28:42;9.00;99.90
1992;DHT22;997;48.448;8.924;2023-12-28T22:31:09;9.00;99.90
1992;DHT22;997;48.448;8.924;2023-12-28T22:33:35;9.00;99.90
1992;DHT22;997;48.448;8.924;2023-12-28T22:36:02;9.00;99.90
1992;DHT22;997;48.448;8.924;2023-12-28T22:38:29;9.00;99.90
1992;DHT22;997;48.448;8.924;2023-12-28T22:40:55;8.90;99.90
1992;DHT22;997;48.448;8.924;2023-12-28T22:43:20;8.90;99.90
1992;DHT22;997;48.448;8.924;2023-12-28T22:45:47;8.80;99.90
1992;DHT22;997;48.448;8.924;2023-12-28T22:48:13;8.80;99.90
1992;DHT22;997;48.448;8.924;2023-12-28T22:50:42;8.80;99.90
1992;DHT22;997;48.448;8.924;2023-12-28T22:53:08;8.80;99.90
1992;DHT22;997;48.448;8.924;2023-12-28T22:55:33;8.80;99.90
1992;DHT22;997;48.448;8.924;2023-12-28T22:57:59;8.80;99.90
1992;DHT22;997;48.448;8.924;2023-12-28T23:00:25;8.80;99.90
1992;DHT22;997;48.448;8.924;2023-12-28T23:03:03;8.80;99.90
1992;DHT22;997;48.448;8.924;2023-12-28T23:05:29;8.70;99.90
1992;DHT22;997;48.448;8.924;2023-12-28T23:07:54;8.60;99.90
1992;DHT22;997;48.448;8.924;2023-12-28T23:10:20;8.60;99.90
1992;DHT22;997;48.448;8.924;2023-12-28T23:12:46;8.60;99.90
1992;DHT22;997;48.448;8.924;2023-12-28T23:15:11;8.60;99.90
1992;DHT22;997;48.448;8.924;2023-12-28T23:17:37;8.60;99.90
1992;DHT22;997;48.448;8.924;2023-12-28T23:20:04;8.70;99.90
1992;DHT22;997;48.448;8.924;2023-12-28T23:22:33;8.70;99.90
1992;DHT22;997;48.448;8.924;2023-12-28T23:25:00;8.70;99.90
1992;DHT22;997;48.448;8.924;2023-12-28T23:27:34;8.70;99.90
1992;DHT22;997;48.448;8.924;2023-12-28T23:30:00;8.70;99.90
1992;DHT22;997;48.448;8.924;2023-12-28T23:32:26;8.70;99.90
1992;DHT22;997;48.448;8.924;2023-12-28T23:34:51;8.80;99.90
1992;DHT22;997;48.448;8.924;2023-12-28T23:37:17;8.80;99.90
1992;DHT22;997;48.448;8.924;2023-12-28T23:39:43;8.70;99.90
1992;DHT22;997;48.448;8.924;2023-12-28T23:42:09;8.70;99.90
1992;DHT22;997;48.448;8.924;2023-12-28T23:44:37;8.70;99.90
1992;DHT22;997;48.448;8.924;2023-12-28T23:47:03;8.80;99.90
1992;DHT22;997;48.448;8.924;2023-12-28T23:49:28;8.80;99.90
1992;DHT22;997;48.448;8.924;2023-12-28T23:51:59;8.80;99.90
1992;DHT22;997;48.448;8.924;2023-12-28T23:54:24;8.80;99.90
1992;DHT22;997;48.448;8.924;2023-12-28T23:56:52;8.80;99.90
1992;DHT22;997;48.448;8.924;2023-12-28T23:59:18;8.80;99.90
